createdAt,value
2023-02-11T00:01:12.680Z,54.03
2023-02-11T00:04:10.097Z,54.10
2023-02-11T00:07:07.998Z,54.17
2023-02-11T00:10:06.516Z,54.24
2023-02-11T00:13:04.473Z,54.32
2023-02-11T00:16:01.896Z,54.39
2023-02-11T00:18:59.748Z,54.48
2023-02-11T00:21:57.176Z,54.56
2023-02-11T00:24:55.429Z,54.65
2023-02-11T00:27:52.872Z,54.76
2023-02-11T00:30:50.704Z,54.85
2023-02-11T00:33:48.523Z,54.98
2023-02-11T00:36:45.968Z,55.06
2023-02-11T00:39:43.781Z,55.13
2023-02-11T00:42:41.236Z,55.32
2023-02-11T00:45:39.084Z,55.39
2023-02-11T00:48:36.510Z,55.52
2023-02-11T00:51:34.300Z,55.67
2023-02-11T00:54:31.716Z,55.82
2023-02-11T00:57:29.637Z,55.94
2023-02-11T01:00:27.062Z,56.05
2023-02-11T01:03:24.893Z,56.16
2023-02-11T01:06:22.308Z,56.37
2023-02-11T01:09:21.514Z,56.50
2023-02-11T01:12:18.944Z,56.64
2023-02-11T01:15:16.750Z,56.75
2023-02-11T01:18:14.200Z,56.87
2023-02-11T01:21:12.078Z,56.98
2023-02-11T01:24:09.525Z,57.06
2023-02-11T01:27:07.409Z,57.17
2023-02-11T01:30:04.865Z,57.21
2023-02-11T01:33:03.159Z,57.36
2023-02-11T01:36:00.819Z,57.43
2023-02-11T01:38:58.231Z,57.62
2023-02-11T01:41:55.928Z,57.79
2023-02-11T01:44:53.346Z,57.96
2023-02-11T01:47:51.028Z,58.13
2023-02-11T01:50:48.447Z,58.30
2023-02-11T01:54:04.205Z,58.46
2023-02-11T01:57:19.582Z,58.54
2023-02-11T02:00:17.013Z,58.59
2023-02-11T02:03:14.660Z,58.85
2023-02-11T02:06:12.158Z,59.05
2023-02-11T02:09:12.288Z,59.18
2023-02-11T02:12:09.973Z,59.35
2023-02-11T02:15:07.384Z,59.52
2023-02-11T02:18:05.087Z,59.81
2023-02-11T02:21:02.540Z,59.95
2023-02-11T02:24:00.315Z,60.25
2023-02-11T02:26:58.012Z,60.40
2023-02-11T02:29:55.439Z,60.94
2023-02-11T02:32:53.107Z,61.32
2023-02-11T02:35:50.692Z,61.52
2023-02-11T02:38:49.212Z,61.42
2023-02-11T02:41:46.731Z,61.75
2023-02-11T02:44:44.470Z,64.89
2023-02-11T02:47:42.163Z,72.12
2023-02-11T02:50:39.589Z,69.77
2023-02-11T02:53:37.273Z,66.46
2023-02-11T02:56:34.788Z,65.43
2023-02-11T02:59:32.383Z,63.71
2023-02-11T03:02:29.830Z,63.07
2023-02-11T03:05:27.506Z,62.08
2023-02-11T03:08:25.170Z,61.16
2023-02-11T03:11:22.591Z,59.28
2023-02-11T03:14:20.271Z,56.79
2023-02-11T03:17:17.689Z,55.98
2023-02-11T03:20:15.284Z,56.13
2023-02-11T03:23:12.717Z,56.27
2023-02-11T03:26:10.432Z,56.52
2023-02-11T03:29:08.114Z,56.88
2023-02-11T03:32:05.568Z,57.29
2023-02-11T03:35:03.310Z,57.53
2023-02-11T03:38:00.766Z,57.98
2023-02-11T03:40:58.575Z,58.30
2023-02-11T03:43:56.286Z,58.80
2023-02-11T03:46:53.732Z,58.89
2023-02-11T03:49:51.452Z,58.91
2023-02-11T03:52:48.982Z,58.97
2023-02-11T03:55:46.581Z,59.20
2023-02-11T03:58:44.016Z,59.29
2023-02-11T04:01:41.726Z,59.34
2023-02-11T04:04:39.466Z,59.44
2023-02-11T04:07:36.934Z,59.53
2023-02-11T04:10:35.013Z,59.72
2023-02-11T04:13:32.442Z,59.66
2023-02-11T04:16:31.292Z,59.75
2023-02-11T04:19:28.812Z,59.84
2023-02-11T04:22:26.695Z,59.66
2023-02-11T04:25:24.153Z,59.76
2023-02-11T04:28:21.931Z,59.96
2023-02-11T04:31:19.853Z,60.11
2023-02-11T04:34:17.480Z,60.17
2023-02-11T04:37:15.229Z,60.17
2023-02-11T04:40:12.654Z,60.22
2023-02-11T04:43:10.284Z,60.37
2023-02-11T04:46:07.786Z,60.40
2023-02-11T04:49:06.201Z,60.33
2023-02-11T04:52:03.678Z,60.30
2023-02-11T04:55:01.332Z,60.40
2023-02-11T04:57:58.783Z,60.41
2023-02-11T05:00:56.558Z,60.51
2023-02-11T05:03:54.316Z,60.49
2023-02-11T05:06:52.167Z,60.59
2023-02-11T05:09:49.927Z,60.67
2023-02-11T05:12:47.359Z,60.70
2023-02-11T05:15:45.180Z,60.75
2023-02-11T05:18:42.630Z,60.76
2023-02-11T05:21:47.753Z,60.72
2023-02-11T05:24:54.261Z,60.67
2023-02-11T05:27:52.733Z,60.62
2023-02-11T05:30:50.210Z,60.52
2023-02-11T05:33:47.935Z,60.34
2023-02-11T05:36:45.379Z,60.25
2023-02-11T05:39:43.204Z,60.01
2023-02-11T05:42:41.460Z,59.85
2023-02-11T05:45:38.931Z,59.68
2023-02-11T05:48:36.683Z,59.49
2023-02-11T05:51:34.197Z,59.31
2023-02-11T05:54:31.913Z,59.26
2023-02-11T05:57:29.385Z,59.21
2023-02-11T06:00:27.146Z,59.08
2023-02-11T06:03:24.616Z,59.01
2023-02-11T06:06:22.353Z,58.98
2023-02-11T06:09:20.142Z,58.91
2023-02-11T06:12:17.611Z,58.94
2023-02-11T06:15:15.364Z,58.87
2023-02-11T06:18:12.798Z,58.85
2023-02-11T06:21:10.449Z,58.75
2023-02-11T06:24:08.484Z,58.63
2023-02-11T06:27:06.204Z,58.62
2023-02-11T06:30:04.638Z,58.54
2023-02-11T06:33:02.112Z,58.48
2023-02-11T06:35:59.764Z,58.44
2023-02-11T06:38:57.180Z,58.38
2023-02-11T06:41:54.956Z,58.30
2023-02-11T06:44:52.404Z,58.26
2023-02-11T06:47:50.179Z,58.19
2023-02-11T06:50:47.590Z,57.91
2023-02-11T06:53:45.398Z,57.90
2023-02-11T06:56:43.176Z,57.69
2023-02-11T06:59:40.613Z,57.64
2023-02-11T07:02:38.333Z,57.18
2023-02-11T07:05:37.183Z,57.11
2023-02-11T07:08:34.794Z,57.10
2023-02-11T07:11:32.259Z,56.74
2023-02-11T07:14:29.963Z,56.16
2023-02-11T07:17:27.407Z,55.78
2023-02-11T07:20:25.205Z,55.77
2023-02-11T07:23:22.686Z,55.37
2023-02-11T07:26:20.403Z,55.01
2023-02-11T07:29:18.203Z,54.80
2023-02-11T07:32:15.707Z,54.52
2023-02-11T07:35:13.439Z,54.32
2023-02-11T07:38:10.897Z,54.13
2023-02-11T07:41:08.645Z,53.67
2023-02-11T07:44:06.435Z,53.38
2023-02-11T07:47:03.992Z,52.78
2023-02-11T07:50:01.666Z,52.81
2023-02-11T07:52:59.134Z,52.88
2023-02-11T07:55:56.762Z,52.07
2023-02-11T07:58:54.296Z,51.75
2023-02-11T08:01:52.150Z,51.77
2023-02-11T08:04:50.190Z,51.88
2023-02-11T08:07:47.905Z,51.97
2023-02-11T08:10:45.348Z,51.75
2023-02-11T08:13:43.210Z,52.00
2023-02-11T08:16:40.906Z,51.62
2023-02-11T08:19:38.403Z,51.25
2023-02-11T08:22:36.180Z,51.52
2023-02-11T08:25:33.682Z,51.41
2023-02-11T08:28:31.498Z,51.44
2023-02-11T08:31:29.164Z,50.99
2023-02-11T08:34:27.019Z,50.80
2023-02-11T08:37:24.466Z,51.08
2023-02-11T08:40:22.098Z,50.61
2023-02-11T08:43:19.566Z,51.08
2023-02-11T08:46:17.481Z,50.54
2023-02-11T08:49:15.378Z,49.95
2023-02-11T08:52:12.957Z,49.63
2023-02-11T08:55:10.799Z,49.66
2023-02-11T08:58:08.276Z,49.16
2023-02-11T09:01:05.986Z,49.75
2023-02-11T09:04:03.518Z,48.99
2023-02-11T09:07:01.332Z,48.98
2023-02-11T09:09:58.835Z,49.38
2023-02-11T09:12:56.679Z,48.26
2023-02-11T09:15:54.136Z,48.12
2023-02-11T09:18:51.878Z,47.94
2023-02-11T09:21:49.906Z,47.84
2023-02-11T09:24:47.356Z,48.01
2023-02-11T09:27:45.814Z,48.06
2023-02-11T09:30:43.326Z,48.37
2023-02-11T09:33:42.346Z,48.01
2023-02-11T09:36:40.718Z,47.84
2023-02-11T09:39:38.195Z,47.43
2023-02-11T09:42:35.917Z,46.85
2023-02-11T09:45:33.379Z,47.71
2023-02-11T09:48:31.230Z,47.79
2023-02-11T09:51:28.679Z,47.53
2023-02-11T09:54:26.737Z,46.96
2023-02-11T09:57:29.041Z,47.00
2023-02-11T10:00:26.956Z,47.29
2023-02-11T10:03:24.650Z,47.49
2023-02-11T10:06:22.063Z,47.07
2023-02-11T10:09:19.773Z,47.41
2023-02-11T10:12:17.219Z,47.45
2023-02-11T10:15:15.427Z,46.54
2023-02-11T10:18:12.890Z,46.82
2023-02-11T10:21:11.891Z,46.51
2023-02-11T10:24:09.333Z,45.79
2023-02-11T10:27:06.933Z,45.97
2023-02-11T10:30:07.832Z,46.73
2023-02-11T10:33:05.259Z,45.36
2023-02-11T10:36:03.033Z,45.65
2023-02-11T10:39:00.497Z,45.44
2023-02-11T10:41:58.284Z,44.91
2023-02-11T10:44:55.734Z,44.86
2023-02-11T10:47:53.504Z,44.38
2023-02-11T10:50:51.572Z,44.24
2023-02-11T10:53:49.277Z,43.12
2023-02-11T10:56:47.182Z,42.39
2023-02-11T10:59:44.647Z,42.07
2023-02-11T11:02:44.511Z,41.81
2023-02-11T11:05:41.990Z,41.57
2023-02-11T11:08:39.717Z,40.86
2023-02-11T11:11:37.504Z,40.92
2023-02-11T11:14:34.941Z,41.31
2023-02-11T11:17:32.824Z,40.49
2023-02-11T11:20:32.249Z,41.22
2023-02-11T11:23:29.973Z,41.34
2023-02-11T11:26:27.651Z,40.06
2023-02-11T11:29:27.022Z,40.43
2023-02-11T11:32:24.813Z,39.90
2023-02-11T11:35:22.561Z,40.12
2023-02-11T11:38:20.603Z,39.51
2023-02-11T11:41:18.054Z,38.84
2023-02-11T11:44:15.771Z,39.43
2023-02-11T11:47:13.566Z,38.63
2023-02-11T11:50:11.010Z,39.18
2023-02-11T11:53:09.091Z,38.27
2023-02-11T11:56:07.368Z,37.79
2023-02-11T11:59:05.088Z,38.35
2023-02-11T12:02:02.848Z,38.48
2023-02-11T12:05:00.824Z,38.12
2023-02-11T12:07:58.656Z,38.44
2023-02-11T12:10:56.297Z,38.80
2023-02-11T12:13:54.104Z,38.93
2023-02-11T12:16:51.582Z,39.07
2023-02-11T12:19:49.421Z,39.20
2023-02-11T12:22:47.126Z,39.58
2023-02-11T12:25:45.090Z,39.29
2023-02-11T12:28:43.051Z,39.07
2023-02-11T12:31:41.127Z,39.22
2023-02-11T12:34:38.647Z,38.97
2023-02-11T12:37:36.717Z,38.65
2023-02-11T12:40:34.480Z,38.73
2023-02-11T12:43:32.292Z,38.43
2023-02-11T12:46:30.393Z,38.92
2023-02-11T12:49:27.836Z,38.71
2023-02-11T12:52:25.542Z,37.89
2023-02-11T12:55:23.246Z,37.18
2023-02-11T12:58:25.405Z,37.29
2023-02-11T13:01:27.446Z,37.33
2023-02-11T13:04:24.911Z,36.86
2023-02-11T13:07:22.671Z,35.93
2023-02-11T13:10:20.534Z,36.06
2023-02-11T13:13:18.564Z,36.33
2023-02-11T13:16:16.826Z,36.94
2023-02-11T13:19:14.676Z,36.51
2023-02-11T13:22:12.440Z,37.49
2023-02-11T13:25:12.755Z,37.53
2023-02-11T13:28:11.138Z,37.71
2023-02-11T13:31:10.212Z,37.35
2023-02-11T13:34:08.073Z,38.04
2023-02-11T13:37:06.311Z,38.09
2023-02-11T13:40:03.763Z,38.73
2023-02-11T13:43:01.933Z,37.90
2023-02-11T13:45:59.806Z,38.40
2023-02-11T13:48:58.281Z,38.65
2023-02-11T13:51:56.302Z,39.06
2023-02-11T13:54:54.031Z,39.20
2023-02-11T13:57:51.788Z,39.14
2023-02-11T14:00:49.744Z,39.40
2023-02-11T14:04:05.493Z,39.63
2023-02-11T14:07:21.051Z,39.83
2023-02-11T14:10:19.249Z,40.31
2023-02-11T14:13:16.760Z,40.15
2023-02-11T14:16:17.092Z,40.15
2023-02-11T14:19:18.270Z,40.00
2023-02-11T14:22:17.039Z,40.34
2023-02-11T14:25:16.340Z,40.39
2023-02-11T14:28:14.477Z,40.61
2023-02-11T14:31:12.348Z,40.60
2023-02-11T14:34:09.897Z,40.95
2023-02-11T14:37:07.751Z,41.06
2023-02-11T14:40:06.904Z,41.27
2023-02-11T14:43:05.091Z,41.44
2023-02-11T14:46:04.758Z,41.66
2023-02-11T14:49:02.352Z,41.95
2023-02-11T14:52:01.224Z,42.25
2023-02-11T14:54:59.669Z,42.58
2023-02-11T14:58:00.138Z,42.97
2023-02-11T15:00:58.972Z,43.27
2023-02-11T15:03:59.279Z,43.57
2023-02-11T15:06:58.226Z,43.78
2023-02-11T15:09:55.845Z,44.13
2023-02-11T15:12:53.920Z,44.36
2023-02-11T15:15:51.689Z,44.67
2023-02-11T15:18:49.146Z,44.89
2023-02-11T15:21:47.440Z,45.20
2023-02-11T15:24:45.096Z,45.66
2023-02-11T15:27:45.414Z,46.05
2023-02-11T15:30:43.520Z,46.77
2023-02-11T15:33:42.533Z,46.88
2023-02-11T15:36:40.876Z,47.60
2023-02-11T15:39:41.241Z,47.94
2023-02-11T15:42:52.084Z,48.05
2023-02-11T15:45:51.383Z,48.63
2023-02-11T15:48:50.602Z,48.76
2023-02-11T15:51:48.759Z,49.13
2023-02-11T15:54:50.800Z,49.66
2023-02-11T15:57:49.552Z,50.08
2023-02-11T16:00:48.314Z,49.50
2023-02-11T16:03:47.687Z,50.62
2023-02-11T16:06:48.446Z,50.55
2023-02-11T16:09:46.724Z,50.90
2023-02-11T16:12:45.320Z,51.76
2023-02-11T16:15:43.831Z,52.59
2023-02-11T16:18:45.253Z,52.36
2023-02-11T16:21:46.217Z,52.38
2023-02-11T16:24:44.984Z,52.58
2023-02-11T16:27:43.975Z,52.79
2023-02-11T16:30:44.573Z,53.23
2023-02-11T16:33:43.156Z,53.55
2023-02-11T16:36:43.048Z,53.73
2023-02-11T16:39:41.256Z,54.26
2023-02-11T16:42:39.880Z,54.16
2023-02-11T16:45:38.729Z,54.49
2023-02-11T16:48:37.254Z,54.75
2023-02-11T16:51:36.046Z,54.52
2023-02-11T16:54:34.505Z,54.76
2023-02-11T16:57:33.938Z,54.79
2023-02-11T17:00:34.784Z,54.98
2023-02-11T17:03:38.049Z,55.29
2023-02-11T17:06:39.618Z,55.27
2023-02-11T17:09:39.419Z,55.61
2023-02-11T17:12:38.637Z,55.22
2023-02-11T17:15:37.938Z,55.60
2023-02-11T17:18:38.166Z,55.61
2023-02-11T17:21:36.513Z,55.41
2023-02-11T17:24:34.721Z,55.49
2023-02-11T17:27:32.941Z,55.77
2023-02-11T17:30:31.663Z,55.78
2023-02-11T17:33:31.003Z,55.46
2023-02-11T17:36:31.448Z,55.47
2023-02-11T17:39:30.849Z,55.61
2023-02-11T17:42:32.435Z,55.64
2023-02-11T17:45:32.603Z,55.37
2023-02-11T17:48:33.292Z,55.27
2023-02-11T17:51:32.455Z,54.91
2023-02-11T17:54:30.502Z,54.89
2023-02-11T17:57:30.271Z,55.12
2023-02-11T18:00:31.142Z,55.00
2023-02-11T18:03:32.520Z,54.89
2023-02-11T18:06:31.125Z,54.96
2023-02-11T18:09:29.580Z,54.97
2023-02-11T18:12:28.284Z,55.02
2023-02-11T18:15:26.773Z,54.94
2023-02-11T18:18:25.977Z,54.90
2023-02-11T18:21:24.541Z,54.99
2023-02-11T18:24:23.443Z,54.97
2023-02-11T18:27:21.871Z,54.84
2023-02-11T18:30:20.844Z,54.95
2023-02-11T18:33:19.544Z,54.98
2023-02-11T18:36:20.961Z,54.96
2023-02-11T18:39:20.800Z,55.11
2023-02-11T18:42:20.293Z,55.19
2023-02-11T18:45:19.493Z,55.03
2023-02-11T18:48:18.120Z,55.12
2023-02-11T18:51:20.454Z,55.23
2023-02-11T18:54:20.093Z,55.30
2023-02-11T18:57:19.370Z,55.61
2023-02-11T19:00:17.549Z,55.64
2023-02-11T19:03:17.780Z,55.58
2023-02-11T19:06:18.782Z,55.47
2023-02-11T19:09:18.765Z,55.50
2023-02-11T19:12:17.938Z,55.48
2023-02-11T19:15:17.027Z,55.65
2023-02-11T19:18:15.742Z,55.79
2023-02-11T19:21:15.444Z,55.78
2023-02-11T19:24:14.352Z,55.95
2023-02-11T19:27:13.810Z,55.94
2023-02-11T19:30:13.447Z,55.98
2023-02-11T19:33:13.060Z,56.12
2023-02-11T19:36:16.804Z,56.04
2023-02-11T19:39:15.340Z,56.09
2023-02-11T19:42:17.821Z,56.25
2023-02-11T19:45:17.815Z,56.55
2023-02-11T19:48:16.727Z,56.62
2023-02-11T19:51:17.009Z,56.46
2023-02-11T19:54:16.468Z,56.51
2023-02-11T19:57:15.359Z,56.61
2023-02-11T20:00:13.834Z,56.54
2023-02-11T20:03:12.481Z,56.52
2023-02-11T20:06:13.783Z,56.73
2023-02-11T20:09:11.549Z,56.86
2023-02-11T20:12:12.594Z,56.97
2023-02-11T20:15:13.900Z,57.09
2023-02-11T20:18:12.844Z,57.24
2023-02-11T20:21:11.627Z,57.30
2023-02-11T20:24:10.844Z,57.63
2023-02-11T20:27:11.162Z,57.49
2023-02-11T20:30:09.737Z,57.81
2023-02-11T20:33:08.338Z,57.83
2023-02-11T20:36:06.894Z,57.68
2023-02-11T20:39:06.044Z,57.81
2023-02-11T20:42:06.063Z,58.27
2023-02-11T20:45:04.496Z,58.37
2023-02-11T20:48:03.285Z,58.48
2023-02-11T20:51:01.757Z,58.33
2023-02-11T20:54:01.539Z,58.43
2023-02-11T20:57:06.096Z,58.62
2023-02-11T21:00:04.973Z,58.86
2023-02-11T21:03:03.301Z,59.20
2023-02-11T21:06:01.881Z,59.19
2023-02-11T21:09:01.096Z,59.04
2023-02-11T21:12:00.574Z,59.45
2023-02-11T21:14:59.178Z,59.73
2023-02-11T21:17:58.585Z,59.65
2023-02-11T21:20:57.067Z,59.87
2023-02-11T21:23:56.836Z,59.78
2023-02-11T21:26:56.122Z,59.52
2023-02-11T21:29:56.692Z,59.72
2023-02-11T21:32:55.349Z,59.95
2023-02-11T21:35:53.705Z,60.20
2023-02-11T21:38:53.099Z,60.62
2023-02-11T21:41:52.597Z,60.59
2023-02-11T21:44:50.420Z,60.15
2023-02-11T21:47:48.714Z,60.04
2023-02-11T21:50:47.345Z,60.59
2023-02-11T21:53:45.322Z,60.38
2023-02-11T21:56:43.440Z,60.60
2023-02-11T21:59:42.482Z,60.84
2023-02-11T22:02:40.638Z,60.68
2023-02-11T22:05:38.812Z,60.80
2023-02-11T22:08:37.096Z,60.88
2023-02-11T22:11:35.326Z,61.08
2023-02-11T22:14:33.153Z,61.63
2023-02-11T22:17:30.627Z,61.81
2023-02-11T22:20:28.529Z,61.62
2023-02-11T22:23:25.969Z,61.89
2023-02-11T22:26:23.820Z,61.87
2023-02-11T22:29:21.910Z,63.61
2023-02-11T22:32:19.857Z,65.51
2023-02-11T22:35:17.276Z,64.73
2023-02-11T22:38:15.254Z,63.04
2023-02-11T22:41:13.154Z,60.94
2023-02-11T22:44:10.583Z,61.05
2023-02-11T22:47:08.490Z,61.04
2023-02-11T22:50:05.910Z,60.66
2023-02-11T22:53:03.812Z,60.09
2023-02-11T22:56:01.374Z,60.39
2023-02-11T22:58:59.232Z,60.38
2023-02-11T23:01:56.873Z,60.80
2023-02-11T23:04:55.082Z,60.49
2023-02-11T23:07:52.529Z,60.42
2023-02-11T23:10:50.813Z,60.27
2023-02-11T23:13:48.323Z,60.73
2023-02-11T23:16:46.158Z,60.64
2023-02-11T23:19:43.588Z,60.20
2023-02-11T23:22:41.415Z,60.31
2023-02-11T23:25:38.849Z,60.53
2023-02-11T23:28:36.756Z,60.81
2023-02-11T23:31:35.051Z,60.38
2023-02-11T23:34:33.043Z,60.13
2023-02-11T23:37:31.324Z,60.49
2023-02-11T23:40:28.755Z,61.02
2023-02-11T23:43:26.670Z,60.89
2023-02-11T23:46:24.173Z,60.28
2023-02-11T23:49:22.180Z,60.33
2023-02-11T23:52:19.615Z,60.72
2023-02-11T23:55:17.513Z,60.82
2023-02-11T23:58:15.372Z,61.12
